sensor_id;sensor_type;location;lat;lon;timestamp;pressure;altitude;pressure_sealevel;temperature;humidity
6132;BME280;3097;42.692;23.278;2023-06-22T00:02:14;95428.53;;;20.28;92.83
6132;BME280;3097;42.692;23.278;2023-06-22T00:04:39;95420.94;;;20.27;92.72
6132;BME280;3097;42.692;23.278;2023-06-22T00:07:05;95416.78;;;20.16;92.96
6132;BME280;3097;42.692;23.278;2023-06-22T00:09:31;95407.66;;;20.08;93.07
6132;BME280;3097;42.692;23.278;2023-06-22T00:11:56;95421.78;;;20.12;93.47
6132;BME280;3097;42.692;23.278;2023-06-22T00:14:22;95420.75;;;20.13;93.01
6132;BME280;3097;42.692;23.278;2023-06-22T00:16:47;95416.53;;;20.17;92.83
6132;BME280;3097;42.692;23.278;2023-06-22T00:19:17;95411.84;;;20.14;93.04
6132;BME280;3097;42.692;23.278;2023-06-22T00:21:44;95412.88;;;20.13;93.06
6132;BME280;3097;42.692;23.278;2023-06-22T00:24:12;95407.69;;;20.03;93.39
6132;BME280;3097;42.692;23.278;2023-06-22T00:26:37;95397.19;;;20.08;93.59
6132;BME280;3097;42.692;23.278;2023-06-22T00:29:03;95387.25;;;20.05;94.07
6132;BME280;3097;42.692;23.278;2023-06-22T00:31:28;95393.81;;;19.97;94.23
6132;BME280;3097;42.692;23.278;2023-06-22T00:33:54;95394.34;;;19.99;94.18
6132;BME280;3097;42.692;23.278;2023-06-22T00:36:19;95388.59;;;19.92;93.69
6132;BME280;3097;42.692;23.278;2023-06-22T00:38:44;95391.50;;;19.91;93.72
6132;BME280;3097;42.692;23.278;2023-06-22T00:41:10;95396.22;;;19.84;94.29
6132;BME280;3097;42.692;23.278;2023-06-22T00:43:35;95397.53;;;19.81;94.34
6132;BME280;3097;42.692;23.278;2023-06-22T00:46:01;95398.59;;;19.75;94.64
6132;BME280;3097;42.692;23.278;2023-06-22T00:48:26;95397.81;;;19.75;94.77
6132;BME280;3097;42.692;23.278;2023-06-22T00:50:52;95390.00;;;19.69;94.62
6132;BME280;3097;42.692;23.278;2023-06-22T00:53:20;95393.38;;;19.75;94.33
6132;BME280;3097;42.692;23.278;2023-06-22T00:55:46;95397.56;;;19.76;94.04
6132;BME280;3097;42.692;23.278;2023-06-22T00:58:13;95352.34;;;19.45;93.85
6132;BME280;3097;42.692;23.278;2023-06-22T01:00:40;95395.97;;;19.70;93.75
6132;BME280;3097;42.692;23.278;2023-06-22T01:03:06;95398.34;;;19.66;93.70
6132;BME280;3097;42.692;23.278;2023-06-22T01:05:35;95405.69;;;19.69;93.28
6132;BME280;3097;42.692;23.278;2023-06-22T01:10:50;95404.66;;;19.60;93.33
6132;BME280;3097;42.692;23.278;2023-06-22T01:13:37;95408.31;;;19.59;93.96
6132;BME280;3097;42.692;23.278;2023-06-22T01:18:40;95407.28;;;19.50;93.99
6132;BME280;3097;42.692;23.278;2023-06-22T01:21:07;95396.81;;;19.50;93.67
6132;BME280;3097;42.692;23.278;2023-06-22T01:27:00;95407.28;;;19.50;92.83
6132;BME280;3097;42.692;23.278;2023-06-22T01:29:31;95421.91;;;19.46;92.58
6132;BME280;3097;42.692;23.278;2023-06-22T01:31:59;95398.09;;;19.27;92.84
6132;BME280;3097;42.692;23.278;2023-06-22T01:34:27;95425.56;;;19.45;93.14
6132;BME280;3097;42.692;23.278;2023-06-22T01:36:54;95429.75;;;19.46;92.83
6132;BME280;3097;42.692;23.278;2023-06-22T01:39:21;95425.28;;;19.42;92.88
6132;BME280;3097;42.692;23.278;2023-06-22T01:41:47;95433.13;;;19.42;93.31
6132;BME280;3097;42.692;23.278;2023-06-22T01:44:13;95426.59;;;19.34;92.67
6132;BME280;3097;42.692;23.278;2023-06-22T01:46:39;95419.81;;;19.28;93.05
6132;BME280;3097;42.692;23.278;2023-06-22T01:49:05;95415.38;;;19.28;93.77
6132;BME280;3097;42.692;23.278;2023-06-22T01:51:31;95423.75;;;19.30;93.06
6132;BME280;3097;42.692;23.278;2023-06-22T01:53:57;95433.13;;;19.26;93.21
6132;BME280;3097;42.692;23.278;2023-06-22T01:56:22;95432.34;;;19.26;93.21
6132;BME280;3097;42.692;23.278;2023-06-22T01:58:54;95430.25;;;19.28;93.24
6132;BME280;3097;42.692;23.278;2023-06-22T02:01:24;95433.69;;;19.23;93.36
6132;BME280;3097;42.692;23.278;2023-06-22T02:04:02;95445.19;;;19.22;93.26
6132;BME280;3097;42.692;23.278;2023-06-22T02:06:32;95453.00;;;19.22;93.52
6132;BME280;3097;42.692;23.278;2023-06-22T02:09:02;95448.84;;;19.16;93.91
6132;BME280;3097;42.692;23.278;2023-06-22T02:11:29;95459.00;;;19.13;93.98
6132;BME280;3097;42.692;23.278;2023-06-22T02:13:57;95445.69;;;19.09;94.20
6132;BME280;3097;42.692;23.278;2023-06-22T02:16:23;95403.06;;;18.83;94.28
6132;BME280;3097;42.692;23.278;2023-06-22T02:18:50;95438.63;;;19.10;94.40
6132;BME280;3097;42.692;23.278;2023-06-22T02:21:19;95433.91;;;19.12;94.27
6132;BME280;3097;42.692;23.278;2023-06-22T02:23:44;95431.31;;;19.12;94.40
6132;BME280;3097;42.692;23.278;2023-06-22T02:26:10;95430.50;;;19.11;94.13
6132;BME280;3097;42.692;23.278;2023-06-22T02:28:36;95432.34;;;19.11;94.27
6132;BME280;3097;42.692;23.278;2023-06-22T02:31:01;95430.78;;;19.10;94.70
6132;BME280;3097;42.692;23.278;2023-06-22T02:33:26;95426.06;;;19.12;94.45
6132;BME280;3097;42.692;23.278;2023-06-22T02:35:52;95429.22;;;19.09;94.44
6132;BME280;3097;42.692;23.278;2023-06-22T02:38:18;95425.81;;;19.08;94.34
6132;BME280;3097;42.692;23.278;2023-06-22T02:40:44;95433.41;;;19.15;94.46
6132;BME280;3097;42.692;23.278;2023-06-22T02:43:10;95431.31;;;19.12;94.85
6132;BME280;3097;42.692;23.278;2023-06-22T02:45:35;95429.72;;;19.11;94.61
6132;BME280;3097;42.692;23.278;2023-06-22T02:48:01;95434.44;;;19.04;94.86
6132;BME280;3097;42.692;23.278;2023-06-22T02:50:26;95431.31;;;19.02;94.57
6132;BME280;3097;42.692;23.278;2023-06-22T02:52:52;95429.75;;;19.06;94.70
6132;BME280;3097;42.692;23.278;2023-06-22T02:55:17;95427.13;;;19.06;94.86
6132;BME280;3097;42.692;23.278;2023-06-22T02:57:43;95427.13;;;19.01;95.16
6132;BME280;3097;42.692;23.278;2023-06-22T03:00:13;95427.91;;;19.06;95.05
6132;BME280;3097;42.692;23.278;2023-06-22T03:02:46;95402.03;;;18.84;94.76
6132;BME280;3097;42.692;23.278;2023-06-22T03:05:12;95421.09;;;18.95;94.82
6132;BME280;3097;42.692;23.278;2023-06-22T03:07:46;95411.16;;;18.87;95.25
6132;BME280;3097;42.692;23.278;2023-06-22T03:10:12;95425.28;;;18.96;94.99
6132;BME280;3097;42.692;23.278;2023-06-22T03:12:38;95447.75;;;19.02;95.19
6132;BME280;3097;42.692;23.278;2023-06-22T03:15:13;95447.00;;;19.02;95.04
6132;BME280;3097;42.692;23.278;2023-06-22T03:17:39;95446.72;;;18.98;95.29
6132;BME280;3097;42.692;23.278;2023-06-22T03:20:06;95460.31;;;19.00;95.34
6132;BME280;3097;42.692;23.278;2023-06-22T03:22:35;95468.16;;;19.05;95.23
6132;BME280;3097;42.692;23.278;2023-06-22T03:25:01;95470.75;;;19.10;95.35
6132;BME280;3097;42.692;23.278;2023-06-22T03:27:26;95464.25;;;19.13;95.25
6132;BME280;3097;42.692;23.278;2023-06-22T03:29:52;95472.88;;;19.13;95.35
6132;BME280;3097;42.692;23.278;2023-06-22T03:32:17;95466.06;;;19.12;95.14
6132;BME280;3097;42.692;23.278;2023-06-22T03:34:42;95470.78;;;19.20;94.98
6132;BME280;3097;42.692;23.278;2023-06-22T03:37:13;95398.88;;;18.77;94.66
6132;BME280;3097;42.692;23.278;2023-06-22T03:39:40;95456.13;;;19.04;94.72
6132;BME280;3097;42.692;23.278;2023-06-22T03:42:06;95480.97;;;19.27;94.75
6132;BME280;3097;42.692;23.278;2023-06-22T03:44:31;95483.09;;;19.35;94.39
6132;BME280;3097;42.692;23.278;2023-06-22T03:46:57;95481.00;;;19.37;94.50
6132;BME280;3097;42.692;23.278;2023-06-22T03:49:22;95481.53;;;19.39;94.12
6132;BME280;3097;42.692;23.278;2023-06-22T03:51:47;95487.53;;;19.45;93.84
6132;BME280;3097;42.692;23.278;2023-06-22T03:54:13;95495.16;;;19.51;93.12
6132;BME280;3097;42.692;23.278;2023-06-22T03:56:38;95496.72;;;19.52;93.00
6132;BME280;3097;42.692;23.278;2023-06-22T03:59:04;95484.41;;;19.63;92.85
6132;BME280;3097;42.692;23.278;2023-06-22T04:01:29;95475.78;;;19.57;92.73
6132;BME280;3097;42.692;23.278;2023-06-22T04:03:55;95494.09;;;19.67;93.08
6132;BME280;3097;42.692;23.278;2023-06-22T04:06:20;95494.88;;;19.83;92.15
6132;BME280;3097;42.692;23.278;2023-06-22T04:08:46;95486.44;;;20.01;91.44
6132;BME280;3097;42.692;23.278;2023-06-22T04:11:16;95441.72;;;19.93;89.55
6132;BME280;3097;42.692;23.278;2023-06-22T04:13:42;95475.69;;;20.33;88.58
6132;BME280;3097;42.692;23.278;2023-06-22T04:16:08;95472.44;;;20.57;87.07
6132;BME280;3097;42.692;23.278;2023-06-22T04:18:33;95469.88;;;20.96;86.13
6132;BME280;3097;42.692;23.278;2023-06-22T04:20:59;95472.53;;;21.35;84.49
6132;BME280;3097;42.692;23.278;2023-06-22T04:23:24;95457.88;;;21.62;82.44
6132;BME280;3097;42.692;23.278;2023-06-22T04:25:50;95455.72;;;21.98;80.52
6132;BME280;3097;42.692;23.278;2023-06-22T04:28:16;95468.53;;;22.29;78.35
6132;BME280;3097;42.692;23.278;2023-06-22T04:30:42;95459.88;;;22.71;77.21
6132;BME280;3097;42.692;23.278;2023-06-22T04:33:15;95472.06;;;23.23;75.64
6132;BME280;3097;42.692;23.278;2023-06-22T04:35:41;95467.47;;;23.66;73.61
6132;BME280;3097;42.692;23.278;2023-06-22T04:38:07;95470.88;;;24.13;72.85
6132;BME280;3097;42.692;23.278;2023-06-22T04:40:33;95442.69;;;24.27;70.41
6132;BME280;3097;42.692;23.278;2023-06-22T04:42:58;95474.13;;;24.64;68.00
6132;BME280;3097;42.692;23.278;2023-06-22T04:45:27;95473.00;;;24.93;67.15
6132;BME280;3097;42.692;23.278;2023-06-22T04:47:52;95476.84;;;25.23;66.16
6132;BME280;3097;42.692;23.278;2023-06-22T04:50:18;95470.03;;;25.66;64.20
6132;BME280;3097;42.692;23.278;2023-06-22T04:52:46;95470.91;;;26.15;63.16
6132;BME280;3097;42.692;23.278;2023-06-22T04:55:11;95473.88;;;26.62;62.33
6132;BME280;3097;42.692;23.278;2023-06-22T04:57:37;95489.22;;;27.08;60.94
6132;BME280;3097;42.692;23.278;2023-06-22T05:00:05;95481.28;;;27.59;59.37
6132;BME280;3097;42.692;23.278;2023-06-22T05:02:40;95480.41;;;28.10;58.35
6132;BME280;3097;42.692;23.278;2023-06-22T05:05:06;95474.78;;;28.50;55.28
6132;BME280;3097;42.692;23.278;2023-06-22T05:07:34;95436.94;;;28.41;54.65
6132;BME280;3097;42.692;23.278;2023-06-22T05:10:03;95451.78;;;29.13;54.34
6132;BME280;3097;42.692;23.278;2023-06-22T05:12:29;95422.97;;;29.56;52.91
6132;BME280;3097;42.692;23.278;2023-06-22T05:14:55;95466.25;;;30.35;51.67
6132;BME280;3097;42.692;23.278;2023-06-22T05:17:21;95467.78;;;30.85;50.46
6132;BME280;3097;42.692;23.278;2023-06-22T05:19:46;95468.47;;;31.34;49.76
6132;BME280;3097;42.692;23.278;2023-06-22T05:22:15;95470.31;;;31.73;48.34
6132;BME280;3097;42.692;23.278;2023-06-22T05:24:41;95470.69;;;32.03;47.43
6132;BME280;3097;42.692;23.278;2023-06-22T05:27:08;95470.28;;;32.48;46.91
6132;BME280;3097;42.692;23.278;2023-06-22T05:29:33;95459.19;;;32.97;44.94
6132;BME280;3097;42.692;23.278;2023-06-22T05:31:59;95468.53;;;33.41;43.42
6132;BME280;3097;42.692;23.278;2023-06-22T05:34:25;95478.06;;;33.62;41.82
6132;BME280;3097;42.692;23.278;2023-06-22T05:36:52;95476.53;;;33.61;43.32
6132;BME280;3097;42.692;23.278;2023-06-22T05:39:17;95478.16;;;34.07;43.19
6132;BME280;3097;42.692;23.278;2023-06-22T05:41:44;95483.53;;;34.53;42.07
6132;BME280;3097;42.692;23.278;2023-06-22T05:44:10;95485.22;;;34.87;40.97
6132;BME280;3097;42.692;23.278;2023-06-22T05:46:35;95494.53;;;35.23;41.20
6132;BME280;3097;42.692;23.278;2023-06-22T05:49:01;95493.59;;;35.42;40.04
6132;BME280;3097;42.692;23.278;2023-06-22T05:51:26;95489.94;;;35.24;38.56
6132;BME280;3097;42.692;23.278;2023-06-22T05:53:52;95495.59;;;35.49;40.41
6132;BME280;3097;42.692;23.278;2023-06-22T05:56:17;95487.75;;;35.66;39.87
6132;BME280;3097;42.692;23.278;2023-06-22T05:58:43;95500.19;;;35.78;38.53
6132;BME280;3097;42.692;23.278;2023-06-22T06:01:08;95493.19;;;36.11;37.25
6132;BME280;3097;42.692;23.278;2023-06-22T06:03:33;95488.91;;;36.46;37.35
6132;BME280;3097;42.692;23.278;2023-06-22T06:05:59;95493.38;;;36.72;36.50
6132;BME280;3097;42.692;23.278;2023-06-22T06:08:25;95485.97;;;37.17;36.82
6132;BME280;3097;42.692;23.278;2023-06-22T06:10:50;95487.28;;;37.51;37.19
6132;BME280;3097;42.692;23.278;2023-06-22T06:13:18;95476.22;;;37.74;35.52
6132;BME280;3097;42.692;23.278;2023-06-22T06:15:43;95476.59;;;37.76;35.83
6132;BME280;3097;42.692;23.278;2023-06-22T06:18:09;95477.25;;;37.45;35.98
6132;BME280;3097;42.692;23.278;2023-06-22T06:20:34;95478.69;;;37.17;36.97
6132;BME280;3097;42.692;23.278;2023-06-22T06:23:00;95472.44;;;37.03;37.91
6132;BME280;3097;42.692;23.278;2023-06-22T06:25:27;95474.56;;;36.69;36.19
6132;BME280;3097;42.692;23.278;2023-06-22T06:27:52;95460.84;;;35.96;38.28
6132;BME280;3097;42.692;23.278;2023-06-22T06:30:20;95479.81;;;35.44;39.78
6132;BME280;3097;42.692;23.278;2023-06-22T06:32:47;95478.22;;;34.79;40.12
6132;BME280;3097;42.692;23.278;2023-06-22T06:35:14;95480.63;;;34.39;41.21
6132;BME280;3097;42.692;23.278;2023-06-22T06:37:42;95475.91;;;33.87;41.40
6132;BME280;3097;42.692;23.278;2023-06-22T06:40:09;95450.03;;;33.33;43.81
6132;BME280;3097;42.692;23.278;2023-06-22T06:42:38;95466.69;;;33.26;44.08
6132;BME280;3097;42.692;23.278;2023-06-22T06:45:07;95463.03;;;33.15;44.32
6132;BME280;3097;42.692;23.278;2023-06-22T06:47:33;95474.72;;;32.91;45.38
6132;BME280;3097;42.692;23.278;2023-06-22T06:49:58;95460.28;;;32.77;47.04
6132;BME280;3097;42.692;23.278;2023-06-22T06:52:25;95451.50;;;32.60;46.91
6132;BME280;3097;42.692;23.278;2023-06-22T06:54:50;95454.78;;;32.70;45.74
6132;BME280;3097;42.692;23.278;2023-06-22T06:57:17;95439.63;;;32.74;47.84
6132;BME280;3097;42.692;23.278;2023-06-22T06:59:43;95459.78;;;33.06;47.85
6132;BME280;3097;42.692;23.278;2023-06-22T07:02:08;95454.56;;;33.13;45.41
6132;BME280;3097;42.692;23.278;2023-06-22T07:04:34;95457.72;;;32.99;45.94
6132;BME280;3097;42.692;23.278;2023-06-22T07:07:01;95458.91;;;33.02;45.38
6132;BME280;3097;42.692;23.278;2023-06-22T07:09:27;95454.28;;;32.99;47.28
6132;BME280;3097;42.692;23.278;2023-06-22T07:11:52;95456.88;;;32.95;46.96
6132;BME280;3097;42.692;23.278;2023-06-22T07:14:18;95455.41;;;32.98;45.29
6132;BME280;3097;42.692;23.278;2023-06-22T07:16:43;95454.69;;;33.01;48.50
6132;BME280;3097;42.692;23.278;2023-06-22T07:19:11;95460.34;;;33.15;48.28
6132;BME280;3097;42.692;23.278;2023-06-22T07:21:37;95451.22;;;33.35;48.05
6132;BME280;3097;42.692;23.278;2023-06-22T07:24:02;95427.03;;;33.28;49.00
6132;BME280;3097;42.692;23.278;2023-06-22T07:26:28;95455.72;;;33.51;45.68
6132;BME280;3097;42.692;23.278;2023-06-22T07:28:53;95449.59;;;33.31;45.04
6132;BME280;3097;42.692;23.278;2023-06-22T07:31:19;95456.69;;;33.23;47.33
6132;BME280;3097;42.692;23.278;2023-06-22T07:33:44;95452.59;;;33.10;46.06
6132;BME280;3097;42.692;23.278;2023-06-22T07:36:09;95455.25;;;32.91;49.17
6132;BME280;3097;42.692;23.278;2023-06-22T07:38:35;95462.56;;;32.94;48.22
6132;BME280;3097;42.692;23.278;2023-06-22T07:41:01;95460.03;;;33.01;51.13
6132;BME280;3097;42.692;23.278;2023-06-22T07:43:26;95458.72;;;33.11;49.62
6132;BME280;3097;42.692;23.278;2023-06-22T07:45:52;95458.06;;;33.17;50.08
6132;BME280;3097;42.692;23.278;2023-06-22T07:48:20;95464.72;;;33.23;50.41
6132;BME280;3097;42.692;23.278;2023-06-22T07:50:46;95459.50;;;33.11;48.51
6132;BME280;3097;42.692;23.278;2023-06-22T07:53:12;95465.88;;;32.72;47.89
6132;BME280;3097;42.692;23.278;2023-06-22T07:55:37;95468.16;;;32.38;49.03
6132;BME280;3097;42.692;23.278;2023-06-22T07:58:02;95458.13;;;32.04;50.50
6132;BME280;3097;42.692;23.278;2023-06-22T08:00:28;95438.06;;;31.50;50.56
6132;BME280;3097;42.692;23.278;2023-06-22T08:02:53;95463.16;;;31.22;51.40
6132;BME280;3097;42.692;23.278;2023-06-22T08:05:19;95456.78;;;31.10;52.71
6132;BME280;3097;42.692;23.278;2023-06-22T08:07:44;95446.00;;;31.07;52.87
6132;BME280;3097;42.692;23.278;2023-06-22T08:10:11;95446.50;;;31.25;52.12
6132;BME280;3097;42.692;23.278;2023-06-22T08:12:37;95450.88;;;31.17;51.44
6132;BME280;3097;42.692;23.278;2023-06-22T08:15:03;95451.44;;;31.10;52.23
6132;BME280;3097;42.692;23.278;2023-06-22T08:17:29;95441.13;;;31.09;52.29
6132;BME280;3097;42.692;23.278;2023-06-22T08:19:56;95430.31;;;31.05;55.74
6132;BME280;3097;42.692;23.278;2023-06-22T08:22:21;95431.97;;;31.22;53.97
6132;BME280;3097;42.692;23.278;2023-06-22T08:24:47;95441.50;;;31.51;54.54
6132;BME280;3097;42.692;23.278;2023-06-22T08:27:12;95433.06;;;31.61;53.07
6132;BME280;3097;42.692;23.278;2023-06-22T08:29:39;95432.38;;;31.64;55.02
6132;BME280;3097;42.692;23.278;2023-06-22T08:32:04;95429.19;;;31.74;54.28
6132;BME280;3097;42.692;23.278;2023-06-22T08:34:30;95431.97;;;31.78;53.22
6132;BME280;3097;42.692;23.278;2023-06-22T08:36:56;95434.28;;;31.79;52.48
6132;BME280;3097;42.692;23.278;2023-06-22T08:39:21;95437.91;;;31.87;51.86
6132;BME280;3097;42.692;23.278;2023-06-22T08:41:47;95434.22;;;31.91;52.92
6132;BME280;3097;42.692;23.278;2023-06-22T08:44:13;95441.94;;;31.97;53.37
6132;BME280;3097;42.692;23.278;2023-06-22T08:46:39;95422.31;;;31.73;54.09
6132;BME280;3097;42.692;23.278;2023-06-22T08:49:06;95433.41;;;31.75;54.16
6132;BME280;3097;42.692;23.278;2023-06-22T08:51:32;95417.84;;;31.62;54.76
6132;BME280;3097;42.692;23.278;2023-06-22T08:53:57;95429.91;;;31.71;52.80
6132;BME280;3097;42.692;23.278;2023-06-22T08:56:23;95420.53;;;31.77;53.14
6132;BME280;3097;42.692;23.278;2023-06-22T08:58:48;95417.16;;;31.80;48.47
6132;BME280;3097;42.692;23.278;2023-06-22T09:01:13;95409.84;;;31.62;49.04
6132;BME280;3097;42.692;23.278;2023-06-22T09:03:41;95415.25;;;31.37;53.17
6132;BME280;3097;42.692;23.278;2023-06-22T09:06:06;95407.38;;;31.41;49.88
6132;BME280;3097;42.692;23.278;2023-06-22T09:08:37;95405.56;;;31.45;50.71
6132;BME280;3097;42.692;23.278;2023-06-22T09:11:02;95410.84;;;31.29;50.21
6132;BME280;3097;42.692;23.278;2023-06-22T09:13:30;95413.66;;;31.21;52.43
6132;BME280;3097;42.692;23.278;2023-06-22T09:15:56;95417.25;;;31.12;53.79
6132;BME280;3097;42.692;23.278;2023-06-22T09:18:22;95420.13;;;31.20;49.23
6132;BME280;3097;42.692;23.278;2023-06-22T09:20:47;95410.16;;;31.04;52.03
6132;BME280;3097;42.692;23.278;2023-06-22T09:23:13;95414.16;;;31.10;55.54
6132;BME280;3097;42.692;23.278;2023-06-22T09:25:40;95409.78;;;31.18;54.83
6132;BME280;3097;42.692;23.278;2023-06-22T09:28:06;95411.94;;;31.28;55.40
6132;BME280;3097;42.692;23.278;2023-06-22T09:30:31;95414.41;;;31.33;53.77
6132;BME280;3097;42.692;23.278;2023-06-22T09:32:57;95417.09;;;31.49;51.76
6132;BME280;3097;42.692;23.278;2023-06-22T09:35:22;95422.75;;;31.47;49.49
6132;BME280;3097;42.692;23.278;2023-06-22T09:37:47;95420.25;;;31.39;49.97
6132;BME280;3097;42.692;23.278;2023-06-22T09:40:13;95414.53;;;31.25;48.75
6132;BME280;3097;42.692;23.278;2023-06-22T09:42:41;95422.81;;;31.07;51.19
6132;BME280;3097;42.692;23.278;2023-06-22T09:45:06;95421.69;;;31.08;52.74
6132;BME280;3097;42.692;23.278;2023-06-22T09:47:32;95419.69;;;31.18;50.60
6132;BME280;3097;42.692;23.278;2023-06-22T09:49:58;95410.38;;;30.99;52.53
6132;BME280;3097;42.692;23.278;2023-06-22T09:52:25;95416.03;;;30.98;52.47
6132;BME280;3097;42.692;23.278;2023-06-22T09:54:50;95395.50;;;30.98;53.66
6132;BME280;3097;42.692;23.278;2023-06-22T09:57:16;95408.81;;;31.10;51.76
6132;BME280;3097;42.692;23.278;2023-06-22T09:59:41;95388.19;;;31.07;49.85
6132;BME280;3097;42.692;23.278;2023-06-22T10:02:06;95399.97;;;30.94;49.74
6132;BME280;3097;42.692;23.278;2023-06-22T10:04:33;95385.06;;;30.65;50.74
6132;BME280;3097;42.692;23.278;2023-06-22T10:06:59;95392.06;;;30.58;52.94
6132;BME280;3097;42.692;23.278;2023-06-22T10:09:24;95395.19;;;30.60;55.88
6132;BME280;3097;42.692;23.278;2023-06-22T10:11:50;95396.06;;;30.64;56.20
6132;BME280;3097;42.692;23.278;2023-06-22T10:14:15;95386.47;;;30.75;55.41
6132;BME280;3097;42.692;23.278;2023-06-22T10:16:41;95395.88;;;30.85;52.11
6132;BME280;3097;42.692;23.278;2023-06-22T10:19:07;95384.25;;;30.77;54.40
6132;BME280;3097;42.692;23.278;2023-06-22T10:21:32;95383.59;;;30.80;57.32
6132;BME280;3097;42.692;23.278;2023-06-22T10:23:58;95386.38;;;30.71;53.94
6132;BME280;3097;42.692;23.278;2023-06-22T10:26:26;95387.22;;;30.88;54.78
6132;BME280;3097;42.692;23.278;2023-06-22T10:28:54;95378.41;;;30.99;56.28
6132;BME280;3097;42.692;23.278;2023-06-22T10:31:19;95379.53;;;30.98;47.87
6132;BME280;3097;42.692;23.278;2023-06-22T10:33:45;95379.00;;;30.93;53.30
6132;BME280;3097;42.692;23.278;2023-06-22T10:36:11;95389.66;;;30.93;53.95
6132;BME280;3097;42.692;23.278;2023-06-22T10:38:36;95383.88;;;30.91;51.35
6132;BME280;3097;42.692;23.278;2023-06-22T10:41:02;95377.06;;;31.05;53.61
6132;BME280;3097;42.692;23.278;2023-06-22T10:43:27;95376.84;;;31.10;49.39
6132;BME280;3097;42.692;23.278;2023-06-22T10:45:53;95370.41;;;30.99;49.50
6132;BME280;3097;42.692;23.278;2023-06-22T10:48:18;95368.66;;;30.91;51.39
6132;BME280;3097;42.692;23.278;2023-06-22T10:50:43;95373.59;;;30.89;50.09
6132;BME280;3097;42.692;23.278;2023-06-22T10:53:09;95364.91;;;30.92;52.20
6132;BME280;3097;42.692;23.278;2023-06-22T10:55:34;95355.59;;;30.86;49.97
6132;BME280;3097;42.692;23.278;2023-06-22T10:58:00;95361.38;;;30.88;51.10
6132;BME280;3097;42.692;23.278;2023-06-22T11:00:25;95360.28;;;30.89;51.67
6132;BME280;3097;42.692;23.278;2023-06-22T11:02:50;95358.41;;;31.05;48.82
6132;BME280;3097;42.692;23.278;2023-06-22T11:05:16;95357.22;;;31.03;46.49
6132;BME280;3097;42.692;23.278;2023-06-22T11:07:42;95358.03;;;30.91;48.32
6132;BME280;3097;42.692;23.278;2023-06-22T11:10:09;95334.13;;;30.79;49.89
6132;BME280;3097;42.692;23.278;2023-06-22T11:12:34;95348.44;;;31.02;49.16
6132;BME280;3097;42.692;23.278;2023-06-22T11:14:59;95351.22;;;31.06;49.63
6132;BME280;3097;42.692;23.278;2023-06-22T11:17:25;95347.13;;;31.08;46.64
6132;BME280;3097;42.692;23.278;2023-06-22T11:19:50;95315.34;;;30.88;47.73
6132;BME280;3097;42.692;23.278;2023-06-22T11:22:16;95343.53;;;31.17;48.56
6132;BME280;3097;42.692;23.278;2023-06-22T11:24:41;95346.63;;;31.19;48.43
6132;BME280;3097;42.692;23.278;2023-06-22T11:27:07;95337.34;;;31.12;47.18
6132;BME280;3097;42.692;23.278;2023-06-22T11:29:32;95335.78;;;31.11;46.30
6132;BME280;3097;42.692;23.278;2023-06-22T11:31:57;95334.25;;;30.98;48.59
6132;BME280;3097;42.692;23.278;2023-06-22T11:34:23;95338.28;;;30.92;46.87
6132;BME280;3097;42.692;23.278;2023-06-22T11:36:48;95338.84;;;30.86;47.74
6132;BME280;3097;42.692;23.278;2023-06-22T11:39:14;95337.03;;;30.74;48.35
6132;BME280;3097;42.692;23.278;2023-06-22T11:41:40;95337.50;;;30.64;48.49
6132;BME280;3097;42.692;23.278;2023-06-22T11:44:06;95338.41;;;30.56;48.85
6132;BME280;3097;42.692;23.278;2023-06-22T11:46:32;95336.41;;;30.53;49.89
6132;BME280;3097;42.692;23.278;2023-06-22T11:48:58;95333.31;;;30.51;50.70
6132;BME280;3097;42.692;23.278;2023-06-22T11:51:23;95329.72;;;30.47;53.27
6132;BME280;3097;42.692;23.278;2023-06-22T11:53:49;95332.66;;;30.29;54.31
6132;BME280;3097;42.692;23.278;2023-06-22T11:56:14;95338.44;;;30.19;54.21
6132;BME280;3097;42.692;23.278;2023-06-22T11:58:39;95343.97;;;30.02;55.17
6132;BME280;3097;42.692;23.278;2023-06-22T12:01:05;95345.16;;;29.92;56.52
6132;BME280;3097;42.692;23.278;2023-06-22T12:03:30;95345.72;;;29.86;56.27
6132;BME280;3097;42.692;23.278;2023-06-22T12:05:55;95348.59;;;29.69;58.14
6132;BME280;3097;42.692;23.278;2023-06-22T12:08:21;95349.81;;;29.71;60.12
6132;BME280;3097;42.692;23.278;2023-06-22T12:10:47;95334.53;;;29.68;61.55
6132;BME280;3097;42.692;23.278;2023-06-22T12:13:12;95305.63;;;29.54;59.06
6132;BME280;3097;42.692;23.278;2023-06-22T12:15:38;95353.03;;;29.77;57.58
6132;BME280;3097;42.692;23.278;2023-06-22T12:18:03;95358.22;;;29.73;57.73
6132;BME280;3097;42.692;23.278;2023-06-22T12:20:29;95364.41;;;29.65;58.05
6132;BME280;3097;42.692;23.278;2023-06-22T12:22:54;95381.47;;;29.64;58.15
6132;BME280;3097;42.692;23.278;2023-06-22T12:25:22;95379.47;;;29.28;62.78
6132;BME280;3097;42.692;23.278;2023-06-22T12:27:47;95349.69;;;28.90;66.46
6132;BME280;3097;42.692;23.278;2023-06-22T12:30:13;95335.22;;;28.37;69.03
6132;BME280;3097;42.692;23.278;2023-06-22T12:32:38;95368.28;;;28.10;69.79
6132;BME280;3097;42.692;23.278;2023-06-22T12:35:04;95368.03;;;27.48;72.05
6132;BME280;3097;42.692;23.278;2023-06-22T12:37:29;95342.09;;;26.64;74.04
6132;BME280;3097;42.692;23.278;2023-06-22T12:39:56;95373.19;;;26.49;76.24
6132;BME280;3097;42.692;23.278;2023-06-22T12:42:22;95377.03;;;26.26;77.29
6132;BME280;3097;42.692;23.278;2023-06-22T12:44:47;95378.50;;;26.10;77.68
6132;BME280;3097;42.692;23.278;2023-06-22T12:47:13;95383.91;;;25.96;74.47
6132;BME280;3097;42.692;23.278;2023-06-22T12:49:39;95391.03;;;25.78;75.40
6132;BME280;3097;42.692;23.278;2023-06-22T12:52:13;95386.44;;;25.62;76.17
6132;BME280;3097;42.692;23.278;2023-06-22T12:54:38;95402.31;;;25.70;78.09
6132;BME280;3097;42.692;23.278;2023-06-22T12:57:04;95401.97;;;25.63;78.11
6132;BME280;3097;42.692;23.278;2023-06-22T12:59:30;95404.13;;;25.61;78.96
6132;BME280;3097;42.692;23.278;2023-06-22T13:01:55;95410.69;;;25.72;79.75
6132;BME280;3097;42.692;23.278;2023-06-22T13:04:21;95412.59;;;25.80;82.09
6132;BME280;3097;42.692;23.278;2023-06-22T13:06:47;95407.22;;;25.86;78.75
6132;BME280;3097;42.692;23.278;2023-06-22T13:09:18;95397.41;;;25.86;77.09
6132;BME280;3097;42.692;23.278;2023-06-22T13:11:43;95401.19;;;25.94;77.90
6132;BME280;3097;42.692;23.278;2023-06-22T13:14:09;95298.66;;;25.34;77.87